createdAt,value
2022-09-21T00:01:11.733Z,31.08
2022-09-21T00:03:41.565Z,31.59
2022-09-21T00:06:10.840Z,31.00
2022-09-21T00:08:38.089Z,31.24
2022-09-21T00:11:06.275Z,31.47
2022-09-21T00:13:33.750Z,30.83
2022-09-21T00:16:01.110Z,31.16
2022-09-21T00:18:28.756Z,31.64
2022-09-21T00:20:55.950Z,31.41
2022-09-21T00:23:23.868Z,31.94
2022-09-21T00:25:51.082Z,31.93
2022-09-21T00:28:18.384Z,31.77
2022-09-21T00:30:45.932Z,31.37
2022-09-21T00:33:13.204Z,31.58
2022-09-21T00:35:41.390Z,31.52
2022-09-21T00:38:08.743Z,31.70
2022-09-21T00:40:35.976Z,31.77
2022-09-21T00:43:13.458Z,31.54
2022-09-21T00:45:41.258Z,31.73
2022-09-21T00:48:08.496Z,31.73
2022-09-21T00:50:38.607Z,31.68
2022-09-21T00:53:06.088Z,31.87
2022-09-21T00:55:38.036Z,31.88
2022-09-21T00:58:09.388Z,31.83
2022-09-21T01:00:37.425Z,31.95
2022-09-21T01:03:05.462Z,31.85
2022-09-21T01:05:32.766Z,31.77
2022-09-21T01:08:02.027Z,31.41
2022-09-21T01:10:32.760Z,31.76
2022-09-21T01:13:09.534Z,32.15
2022-09-21T01:15:50.234Z,32.15
2022-09-21T01:18:26.290Z,32.17
2022-09-21T01:20:56.726Z,31.71
2022-09-21T01:23:42.480Z,31.79
2022-09-21T01:26:28.730Z,32.18
2022-09-21T01:29:05.029Z,31.63
2022-09-21T01:31:37.583Z,32.00
2022-09-21T01:34:09.671Z,32.42
2022-09-21T01:36:38.434Z,32.11
2022-09-21T01:39:11.379Z,31.98
2022-09-21T01:41:41.267Z,32.01
2022-09-21T01:44:28.700Z,32.14
2022-09-21T01:46:56.972Z,32.30
2022-09-21T01:49:27.388Z,31.60
2022-09-21T01:52:00.844Z,32.11
2022-09-21T01:54:35.453Z,31.89
2022-09-21T01:57:07.446Z,32.26
2022-09-21T01:59:35.108Z,32.24
2022-09-21T02:02:06.839Z,32.60
2022-09-21T02:04:35.195Z,32.59
2022-09-21T02:07:02.621Z,32.56
2022-09-21T02:09:29.979Z,32.48
2022-09-21T02:11:58.462Z,32.49
2022-09-21T02:14:25.800Z,32.06
2022-09-21T02:16:56.436Z,32.29
2022-09-21T02:19:42.400Z,32.29
2022-09-21T02:22:12.916Z,32.30
2022-09-21T02:25:18.691Z,32.34
2022-09-21T02:27:49.864Z,32.63
2022-09-21T02:30:18.455Z,32.31
2022-09-21T02:33:04.459Z,32.42
2022-09-21T02:35:40.573Z,32.30
2022-09-21T02:38:07.751Z,32.63
2022-09-21T02:40:37.531Z,32.36
2022-09-21T02:43:23.248Z,32.65
2022-09-21T02:46:15.339Z,32.80
2022-09-21T02:48:48.308Z,32.47
2022-09-21T02:51:21.955Z,32.87
2022-09-21T02:53:52.464Z,32.67
2022-09-21T02:56:20.563Z,32.76
2022-09-21T02:58:50.535Z,32.82
2022-09-21T03:01:19.004Z,32.49
2022-09-21T03:03:46.590Z,32.25
2022-09-21T03:06:13.784Z,32.91
2022-09-21T03:08:41.144Z,32.35
2022-09-21T03:11:09.115Z,32.39
2022-09-21T03:13:36.806Z,32.36
2022-09-21T03:16:07.612Z,32.52
2022-09-21T03:18:35.195Z,32.72
2022-09-21T03:21:03.385Z,32.57
2022-09-21T03:23:31.116Z,32.69
2022-09-21T03:25:58.328Z,32.37
2022-09-21T03:28:25.618Z,32.81
2022-09-21T03:30:52.946Z,32.12
2022-09-21T03:33:20.974Z,32.77
2022-09-21T03:35:48.413Z,32.95
2022-09-21T03:38:16.970Z,32.65
2022-09-21T03:40:48.065Z,32.84
2022-09-21T03:43:15.432Z,32.57
2022-09-21T03:45:43.389Z,32.22
2022-09-21T03:48:11.185Z,32.40
2022-09-21T03:50:38.867Z,32.39
2022-09-21T03:53:06.596Z,32.05
2022-09-21T03:55:33.891Z,31.80
2022-09-21T03:58:01.120Z,32.08
2022-09-21T04:00:28.982Z,31.73
2022-09-21T04:02:56.716Z,31.78
2022-09-21T04:05:24.032Z,31.68
2022-09-21T04:07:51.313Z,31.67
2022-09-21T04:10:19.791Z,31.58
2022-09-21T04:12:47.676Z,31.60
2022-09-21T04:15:16.641Z,31.38
2022-09-21T04:17:43.975Z,30.99
2022-09-21T04:20:11.417Z,31.10
2022-09-21T04:22:43.170Z,31.55
2022-09-21T04:25:12.212Z,31.22
2022-09-21T04:27:40.258Z,31.68
2022-09-21T04:30:08.466Z,31.91
2022-09-21T04:32:35.635Z,31.71
2022-09-21T04:35:02.948Z,31.69
2022-09-21T04:37:30.402Z,31.43
2022-09-21T04:39:57.560Z,31.53
2022-09-21T04:42:24.932Z,31.35
2022-09-21T04:44:52.159Z,30.80
2022-09-21T04:47:19.499Z,30.77
2022-09-21T04:49:46.726Z,31.04
2022-09-21T04:52:18.838Z,31.12
2022-09-21T04:54:47.227Z,31.01
2022-09-21T04:57:15.123Z,31.35
2022-09-21T04:59:42.441Z,31.48
2022-09-21T05:02:10.231Z,31.02
2022-09-21T05:04:37.524Z,31.32
2022-09-21T05:07:04.785Z,30.88
2022-09-21T05:09:50.668Z,28.04
2022-09-21T05:12:17.876Z,29.77
2022-09-21T05:14:45.147Z,30.67
2022-09-21T05:17:12.883Z,31.08
2022-09-21T05:19:40.423Z,31.46
2022-09-21T05:22:07.708Z,31.11
2022-09-21T05:24:35.255Z,31.56
2022-09-21T05:27:02.515Z,31.70
2022-09-21T05:29:29.824Z,31.26
2022-09-21T05:32:08.960Z,31.46
2022-09-21T05:34:36.884Z,31.31
2022-09-21T05:37:26.897Z,31.40
2022-09-21T05:39:54.349Z,31.64
2022-09-21T05:42:21.756Z,31.64
2022-09-21T05:44:50.727Z,30.75
2022-09-21T05:47:21.062Z,30.51
2022-09-21T05:50:06.535Z,30.82
2022-09-21T05:52:39.500Z,30.31
2022-09-21T05:55:09.544Z,30.56
2022-09-21T05:58:01.859Z,30.40
2022-09-21T06:00:35.262Z,30.04
2022-09-21T06:03:22.245Z,30.81
2022-09-21T06:05:49.511Z,30.50
2022-09-21T06:08:16.702Z,30.52
2022-09-21T06:10:43.917Z,30.32
2022-09-21T06:13:11.263Z,30.40
2022-09-21T06:15:39.115Z,31.22
2022-09-21T06:18:07.007Z,30.69
2022-09-21T06:20:34.253Z,30.52
2022-09-21T06:23:05.702Z,30.57
2022-09-21T06:25:33.045Z,30.27
2022-09-21T06:28:07.444Z,30.35
2022-09-21T06:30:34.930Z,31.08
2022-09-21T06:33:02.616Z,30.68
2022-09-21T06:35:30.471Z,30.38
2022-09-21T06:38:00.910Z,30.96
2022-09-21T06:40:28.918Z,30.72
2022-09-21T06:42:57.424Z,30.60
2022-09-21T06:45:25.407Z,30.57
2022-09-21T06:47:52.689Z,30.48
2022-09-21T06:50:20.432Z,30.77
2022-09-21T06:52:47.844Z,30.40
2022-09-21T06:55:15.351Z,30.95
2022-09-21T06:57:43.756Z,30.85
2022-09-21T07:00:11.823Z,30.93
2022-09-21T07:02:42.417Z,30.71
2022-09-21T07:05:09.624Z,30.89
2022-09-21T07:07:36.805Z,30.35
2022-09-21T07:10:05.734Z,31.28
2022-09-21T07:12:34.719Z,31.50
2022-09-21T07:15:02.391Z,31.81
2022-09-21T07:17:33.613Z,31.16
2022-09-21T07:20:02.248Z,30.19
2022-09-21T07:22:30.144Z,30.46
2022-09-21T07:24:58.010Z,30.69
2022-09-21T07:27:26.093Z,31.08
2022-09-21T07:29:53.279Z,31.42
2022-09-21T07:32:20.665Z,31.61
2022-09-21T07:34:48.383Z,31.43
2022-09-21T07:37:16.262Z,31.86
2022-09-21T07:39:43.505Z,31.84
2022-09-21T07:42:10.896Z,31.41
2022-09-21T07:44:38.263Z,31.58
2022-09-21T07:47:05.498Z,31.50
2022-09-21T07:49:32.860Z,32.04
2022-09-21T07:52:03.885Z,31.63
2022-09-21T07:54:33.860Z,31.77
2022-09-21T07:57:20.011Z,31.79
2022-09-21T07:59:47.668Z,31.10
2022-09-21T08:02:14.966Z,31.49
2022-09-21T08:04:42.176Z,31.93
2022-09-21T08:07:09.556Z,31.27
2022-09-21T08:09:36.948Z,30.97
2022-09-21T08:12:04.167Z,31.03
2022-09-21T08:14:31.979Z,31.46
2022-09-21T08:16:59.230Z,31.38
2022-09-21T08:19:26.752Z,31.71
2022-09-21T08:21:57.482Z,31.12
2022-09-21T08:24:26.859Z,31.09
2022-09-21T08:26:55.869Z,31.07
2022-09-21T08:29:26.074Z,31.23
2022-09-21T08:31:56.032Z,31.42
2022-09-21T08:34:24.162Z,31.68
2022-09-21T08:36:55.277Z,31.25
2022-09-21T08:39:23.999Z,31.09
2022-09-21T08:42:10.186Z,30.92
2022-09-21T08:44:43.233Z,30.96
2022-09-21T08:47:20.331Z,31.12
2022-09-21T08:49:51.398Z,31.84
2022-09-21T08:52:19.617Z,31.09
2022-09-21T08:54:54.885Z,31.09
2022-09-21T08:57:26.444Z,31.49
2022-09-21T08:59:53.876Z,31.44
2022-09-21T09:02:39.529Z,31.44
2022-09-21T09:05:06.741Z,31.03
2022-09-21T09:07:52.194Z,30.94
2022-09-21T09:10:22.540Z,31.33
2022-09-21T09:12:49.760Z,31.03
2022-09-21T09:15:31.847Z,31.28
2022-09-21T09:18:05.424Z,30.48
2022-09-21T09:20:41.577Z,31.24
2022-09-21T09:23:21.712Z,31.27
2022-09-21T09:25:51.014Z,30.84
2022-09-21T09:28:18.378Z,30.74
2022-09-21T09:30:45.656Z,30.71
2022-09-21T09:33:12.857Z,30.36
2022-09-21T09:35:46.129Z,30.60
2022-09-21T09:38:16.213Z,30.58
2022-09-21T09:40:55.857Z,31.01
2022-09-21T09:43:46.650Z,30.61
2022-09-21T09:46:22.715Z,30.10
2022-09-21T09:49:14.719Z,30.19
2022-09-21T09:51:42.986Z,30.57
2022-09-21T09:54:15.292Z,30.29
2022-09-21T09:56:42.813Z,30.46
2022-09-21T09:59:25.272Z,30.62
2022-09-21T10:02:00.651Z,30.70
2022-09-21T10:04:28.374Z,30.44
2022-09-21T10:06:55.727Z,30.29
2022-09-21T10:09:25.752Z,30.84
2022-09-21T10:11:53.649Z,31.15
2022-09-21T10:14:22.214Z,30.70
2022-09-21T10:16:52.011Z,30.79
2022-09-21T10:19:21.793Z,30.72
2022-09-21T10:21:52.359Z,30.59
2022-09-21T10:24:23.451Z,30.23
2022-09-21T10:26:54.697Z,30.18
2022-09-21T10:29:22.034Z,30.59
2022-09-21T10:32:00.406Z,30.52
2022-09-21T10:34:30.279Z,30.37
2022-09-21T10:37:03.180Z,30.00
2022-09-21T10:39:31.569Z,30.49
2022-09-21T10:42:00.596Z,30.71
2022-09-21T10:44:41.606Z,30.80
2022-09-21T10:47:17.778Z,30.62
2022-09-21T10:49:50.563Z,30.47
2022-09-21T10:52:20.221Z,30.35
2022-09-21T10:54:48.861Z,30.23
2022-09-21T10:57:17.655Z,30.14
2022-09-21T10:59:45.004Z,30.48
2022-09-21T11:02:31.363Z,30.42
2022-09-21T11:05:08.092Z,30.66
2022-09-21T11:07:39.747Z,30.37
2022-09-21T11:10:25.818Z,30.06
2022-09-21T11:13:12.753Z,30.58
2022-09-21T11:15:51.925Z,30.51
2022-09-21T11:18:22.877Z,30.62
2022-09-21T11:20:50.144Z,30.44
2022-09-21T11:23:36.216Z,30.77
2022-09-21T11:26:11.533Z,30.14
2022-09-21T11:28:46.456Z,30.13
2022-09-21T11:31:52.062Z,30.51
2022-09-21T11:34:38.054Z,31.07
2022-09-21T11:37:09.968Z,30.69
2022-09-21T11:40:03.437Z,30.57
2022-09-21T11:42:45.908Z,30.75
2022-09-21T11:45:35.968Z,30.74
2022-09-21T11:48:22.096Z,30.43
2022-09-21T11:50:49.407Z,30.61
2022-09-21T11:53:31.948Z,30.31
2022-09-21T11:56:19.543Z,30.31
2022-09-21T11:58:54.111Z,30.47
2022-09-21T12:01:21.425Z,30.55
2022-09-21T12:04:03.575Z,30.88
2022-09-21T12:06:30.979Z,30.58
2022-09-21T12:09:06.169Z,30.76
2022-09-21T12:11:44.009Z,30.67
2022-09-21T12:14:19.173Z,30.56
2022-09-21T12:16:58.172Z,30.53
2022-09-21T12:19:27.761Z,30.88
2022-09-21T12:21:59.692Z,30.27
2022-09-21T12:24:33.727Z,30.50
2022-09-21T12:27:14.160Z,30.63
2022-09-21T12:29:47.361Z,30.79
2022-09-21T12:32:33.274Z,30.57
2022-09-21T12:35:03.062Z,30.88
2022-09-21T12:37:33.612Z,30.52
2022-09-21T12:40:13.824Z,30.38
2022-09-21T12:42:41.212Z,30.18
2022-09-21T12:45:20.776Z,30.92
2022-09-21T12:48:00.013Z,30.75
2022-09-21T12:50:29.347Z,30.75
2022-09-21T12:52:57.157Z,30.55
2022-09-21T12:55:33.854Z,30.21
2022-09-21T12:58:22.164Z,30.11
2022-09-21T13:00:53.995Z,30.53
2022-09-21T13:03:27.819Z,30.38
2022-09-21T13:06:13.622Z,30.25
2022-09-21T13:08:45.031Z,30.61
2022-09-21T13:11:12.683Z,30.14
2022-09-21T13:13:45.322Z,30.20
2022-09-21T13:16:30.084Z,30.34
2022-09-21T13:19:19.318Z,30.75
2022-09-21T13:21:46.774Z,30.66
2022-09-21T13:24:34.426Z,30.74
2022-09-21T13:27:07.924Z,30.56
2022-09-21T13:29:36.497Z,30.59
2022-09-21T13:32:24.215Z,30.44
2022-09-21T13:34:51.642Z,30.65
2022-09-21T13:37:18.818Z,30.45
2022-09-21T13:39:46.048Z,30.02
2022-09-21T13:42:32.204Z,29.73
2022-09-21T13:45:00.963Z,30.13
2022-09-21T13:47:30.378Z,30.58
2022-09-21T13:50:00.647Z,30.58
2022-09-21T13:52:40.375Z,29.64
2022-09-21T13:55:21.417Z,30.06
2022-09-21T13:57:50.900Z,30.47
2022-09-21T14:00:18.738Z,30.43
2022-09-21T14:02:55.025Z,29.83
2022-09-21T14:05:29.971Z,29.27
2022-09-21T14:08:26.406Z,28.96
2022-09-21T14:10:59.835Z,28.32
2022-09-21T14:13:36.356Z,28.39
2022-09-21T14:16:22.571Z,28.67
2022-09-21T14:18:49.896Z,28.18
2022-09-21T14:21:17.787Z,28.25
2022-09-21T14:24:05.180Z,29.59
2022-09-21T14:26:36.778Z,29.29
2022-09-21T14:29:27.141Z,29.21
2022-09-21T14:31:59.607Z,29.70
2022-09-21T14:34:31.876Z,28.66
2022-09-21T14:37:01.996Z,30.02
2022-09-21T14:39:32.254Z,29.77
2022-09-21T14:42:02.735Z,30.18
2022-09-21T14:44:31.764Z,28.99
2022-09-21T14:47:04.857Z,28.80
2022-09-21T14:49:32.162Z,29.59
2022-09-21T14:52:12.859Z,29.70
2022-09-21T14:55:00.239Z,29.83
2022-09-21T14:57:35.347Z,29.88
2022-09-21T15:00:15.063Z,30.46
2022-09-21T15:02:44.467Z,30.47
2022-09-21T15:05:31.553Z,30.68
2022-09-21T15:08:23.576Z,30.98
2022-09-21T15:11:10.066Z,30.60
2022-09-21T15:13:45.225Z,30.62
2022-09-21T15:16:12.871Z,30.97
2022-09-21T15:18:41.171Z,30.80
2022-09-21T15:21:21.475Z,31.03
2022-09-21T15:23:51.570Z,30.56
2022-09-21T15:26:23.908Z,30.86
2022-09-21T15:29:10.558Z,30.69
2022-09-21T15:31:40.456Z,30.00
2022-09-21T15:34:08.844Z,29.98
2022-09-21T15:36:38.731Z,30.32
2022-09-21T15:39:06.696Z,30.64
2022-09-21T15:41:49.953Z,30.32
2022-09-21T15:44:32.730Z,30.46
2022-09-21T15:47:03.204Z,30.42
2022-09-21T15:49:31.090Z,30.97
2022-09-21T15:52:24.391Z,30.88
2022-09-21T15:54:55.588Z,31.15
2022-09-21T15:57:36.672Z,30.47
2022-09-21T16:00:07.024Z,30.97
2022-09-21T16:02:38.224Z,30.48
2022-09-21T16:05:08.448Z,31.05
2022-09-21T16:07:36.888Z,30.97
2022-09-21T16:10:24.149Z,30.82
2022-09-21T16:12:51.491Z,30.12
2022-09-21T16:15:25.783Z,30.18
2022-09-21T16:18:01.908Z,30.34
2022-09-21T16:20:48.348Z,31.11
2022-09-21T16:23:26.767Z,30.35
2022-09-21T16:25:56.085Z,30.42
2022-09-21T16:28:29.466Z,30.60
2022-09-21T16:30:57.597Z,30.95
2022-09-21T16:33:44.091Z,31.05
2022-09-21T16:36:34.279Z,30.31
2022-09-21T16:39:06.186Z,30.66
2022-09-21T16:41:35.714Z,30.90
2022-09-21T16:44:03.468Z,30.65
2022-09-21T16:46:32.030Z,30.63
2022-09-21T16:49:00.834Z,30.65
2022-09-21T16:51:28.533Z,30.61
2022-09-21T16:53:56.695Z,31.12
2022-09-21T16:56:24.012Z,30.76
2022-09-21T16:58:51.269Z,30.71
2022-09-21T17:01:20.739Z,30.56
2022-09-21T17:03:48.762Z,30.92
2022-09-21T17:06:17.540Z,30.80
2022-09-21T17:08:48.327Z,30.69
2022-09-21T17:11:21.978Z,30.66
2022-09-21T17:13:50.066Z,30.48
2022-09-21T17:16:18.548Z,30.70
2022-09-21T17:18:46.139Z,30.59
2022-09-21T17:21:13.769Z,30.17
2022-09-21T17:23:42.062Z,30.36
2022-09-21T17:26:15.969Z,30.32
2022-09-21T17:28:44.198Z,30.41
2022-09-21T17:31:12.349Z,30.36
2022-09-21T17:33:40.259Z,30.62
2022-09-21T17:36:11.394Z,30.73
2022-09-21T17:38:38.923Z,30.51
2022-09-21T17:41:16.660Z,30.42
2022-09-21T17:44:02.566Z,30.12
2022-09-21T17:46:44.859Z,29.97
2022-09-21T17:49:12.432Z,30.29
2022-09-21T17:51:58.049Z,30.13
2022-09-21T17:54:25.484Z,30.15
2022-09-21T17:57:05.071Z,29.89
2022-09-21T17:59:33.993Z,29.41
2022-09-21T18:02:01.956Z,30.17
2022-09-21T18:04:35.095Z,30.42
2022-09-21T18:07:03.229Z,30.58
2022-09-21T18:09:30.595Z,30.22
2022-09-21T18:11:58.268Z,29.70
2022-09-21T18:14:25.441Z,30.21
2022-09-21T18:17:07.443Z,29.57
2022-09-21T18:19:53.403Z,30.02
2022-09-21T18:22:24.039Z,30.17
2022-09-21T18:24:51.901Z,30.22
2022-09-21T18:27:20.183Z,29.98
2022-09-21T18:29:47.571Z,30.00
2022-09-21T18:32:33.569Z,30.42
2022-09-21T18:35:24.737Z,30.21
2022-09-21T18:37:51.988Z,30.33
2022-09-21T18:40:31.480Z,29.95
2022-09-21T18:43:12.502Z,29.99
2022-09-21T18:45:45.307Z,30.27
2022-09-21T18:48:13.330Z,30.38
2022-09-21T18:50:55.264Z,30.35
2022-09-21T18:53:41.353Z,30.22
2022-09-21T18:56:09.448Z,30.08
2022-09-21T18:58:37.023Z,30.27
2022-09-21T19:01:05.029Z,29.53
2022-09-21T19:03:32.535Z,30.44
2022-09-21T19:05:59.789Z,30.30
2022-09-21T19:08:26.926Z,30.66
2022-09-21T19:10:57.982Z,30.08
2022-09-21T19:13:40.532Z,30.50
2022-09-21T19:16:28.146Z,30.25
2022-09-21T19:19:14.005Z,30.34
2022-09-21T19:21:49.356Z,30.40
2022-09-21T19:24:22.699Z,30.36
2022-09-21T19:27:02.042Z,30.76
2022-09-21T19:29:38.362Z,30.60
2022-09-21T19:32:16.592Z,31.34
2022-09-21T19:34:44.353Z,31.01
2022-09-21T19:37:12.004Z,30.90
2022-09-21T19:39:39.657Z,31.16
2022-09-21T19:42:09.981Z,30.82
2022-09-21T19:44:57.564Z,31.23
2022-09-21T19:47:31.820Z,30.91
2022-09-21T19:50:06.607Z,30.49
2022-09-21T19:52:36.775Z,30.96
2022-09-21T19:55:23.196Z,31.04
2022-09-21T19:58:09.429Z,30.79
2022-09-21T20:00:38.160Z,30.94
2022-09-21T20:03:31.263Z,30.56
2022-09-21T20:06:06.791Z,30.51
2022-09-21T20:08:52.733Z,30.67
2022-09-21T20:11:38.883Z,30.94
2022-09-21T20:14:23.068Z,30.61
2022-09-21T20:16:55.482Z,30.75
2022-09-21T20:19:44.660Z,30.89
2022-09-21T20:22:13.613Z,30.82
2022-09-21T20:24:49.558Z,30.86
2022-09-21T20:27:19.692Z,30.78
2022-09-21T20:29:47.006Z,31.04
2022-09-21T20:32:14.523Z,30.71
2022-09-21T20:34:41.877Z,30.80
2022-09-21T20:37:13.520Z,31.03
2022-09-21T20:39:41.009Z,30.84
2022-09-21T20:42:14.924Z,30.96
2022-09-21T20:44:42.750Z,31.12
2022-09-21T20:47:09.994Z,30.78
2022-09-21T20:49:37.329Z,30.76
2022-09-21T20:52:04.642Z,30.76
2022-09-21T20:54:31.905Z,30.73
2022-09-21T20:56:59.081Z,30.75
2022-09-21T20:59:27.306Z,31.28
2022-09-21T21:01:55.488Z,30.74
2022-09-21T21:04:22.921Z,30.95
2022-09-21T21:06:50.179Z,30.99
2022-09-21T21:09:17.429Z,30.86
2022-09-21T21:11:44.624Z,30.74
2022-09-21T21:14:12.134Z,30.42
2022-09-21T21:16:39.555Z,30.55
2022-09-21T21:19:06.819Z,30.49
2022-09-21T21:21:34.659Z,30.63
2022-09-21T21:24:20.502Z,30.81
2022-09-21T21:27:01.823Z,30.72
2022-09-21T21:29:30.057Z,30.92
2022-09-21T21:31:58.263Z,30.68
2022-09-21T21:34:25.662Z,30.68
2022-09-21T21:36:53.033Z,30.70
2022-09-21T21:39:20.437Z,30.38
2022-09-21T21:41:47.734Z,30.51
2022-09-21T21:44:15.824Z,30.53
2022-09-21T21:46:43.453Z,30.01
2022-09-21T21:49:10.786Z,30.62
2022-09-21T21:51:37.952Z,30.68
2022-09-21T21:54:05.409Z,30.62
2022-09-21T21:56:32.636Z,30.40
2022-09-21T21:58:59.876Z,30.70
2022-09-21T22:01:29.490Z,30.39
2022-09-21T22:04:00.377Z,30.86
2022-09-21T22:06:29.037Z,30.71
2022-09-21T22:08:56.732Z,30.94
2022-09-21T22:11:25.160Z,30.67
2022-09-21T22:13:53.976Z,30.64
2022-09-21T22:16:22.306Z,30.60
2022-09-21T22:18:50.187Z,30.41
2022-09-21T22:21:22.080Z,30.67
2022-09-21T22:23:59.669Z,30.40
2022-09-21T22:26:28.375Z,30.64
2022-09-21T22:28:59.484Z,30.62
2022-09-21T22:31:28.342Z,30.61
2022-09-21T22:33:55.967Z,30.60
2022-09-21T22:36:24.644Z,30.70
2022-09-21T22:38:52.976Z,30.92
2022-09-21T22:41:21.573Z,30.69
2022-09-21T22:43:50.382Z,30.64
2022-09-21T22:46:18.183Z,30.62
2022-09-21T22:48:46.069Z,30.20
2022-09-21T22:51:14.233Z,30.54
2022-09-21T22:53:41.793Z,30.83
2022-09-21T22:56:09.000Z,31.02
2022-09-21T22:58:37.644Z,30.81
2022-09-21T23:01:08.053Z,30.48
2022-09-21T23:03:35.450Z,30.80
2022-09-21T23:06:03.141Z,30.71
2022-09-21T23:08:31.399Z,30.91
2022-09-21T23:11:07.486Z,30.92
2022-09-21T23:13:34.804Z,31.00
2022-09-21T23:16:06.007Z,30.73
2022-09-21T23:18:33.768Z,30.82
2022-09-21T23:21:02.284Z,30.83
2022-09-21T23:23:29.863Z,30.64
2022-09-21T23:26:01.101Z,31.09
2022-09-21T23:28:28.834Z,31.21
2022-09-21T23:30:57.268Z,31.34
2022-09-21T23:33:24.476Z,31.22
2022-09-21T23:35:51.684Z,31.16
2022-09-21T23:38:18.938Z,30.91
2022-09-21T23:40:46.317Z,31.21
2022-09-21T23:43:13.650Z,31.09
2022-09-21T23:45:42.280Z,31.24
2022-09-21T23:48:09.532Z,31.11
2022-09-21T23:50:36.754Z,31.26
2022-09-21T23:53:03.932Z,31.39
2022-09-21T23:55:31.107Z,31.35
2022-09-21T23:57:58.429Z,31.56
